sensor_id;sensor_type;location;lat;lon;timestamp;temperature;humidity
45761;DHT22;31471;51.040;14.414;2022-07-22T00:02:14;17.00;99.90
45761;DHT22;31471;51.040;14.414;2022-07-22T00:04:40;17.10;99.90
45761;DHT22;31471;51.040;14.414;2022-07-22T00:07:05;16.90;99.90
45761;DHT22;31471;51.040;14.414;2022-07-22T00:09:31;17.00;99.90
45761;DHT22;31471;51.040;14.414;2022-07-22T00:11:57;16.90;99.90
45761;DHT22;31471;51.040;14.414;2022-07-22T00:14:23;17.00;99.90
45761;DHT22;31471;51.040;14.414;2022-07-22T00:16:48;16.90;99.90
45761;DHT22;31471;51.040;14.414;2022-07-22T00:19:14;16.80;99.90
45761;DHT22;31471;51.040;14.414;2022-07-22T00:21:40;16.90;99.90
45761;DHT22;31471;51.040;14.414;2022-07-22T00:24:05;16.90;99.90
45761;DHT22;31471;51.040;14.414;2022-07-22T00:26:31;16.90;99.90
45761;DHT22;31471;51.040;14.414;2022-07-22T00:28:57;16.90;99.90
45761;DHT22;31471;51.040;14.414;2022-07-22T00:31:22;16.80;99.90
45761;DHT22;31471;51.040;14.414;2022-07-22T00:33:48;16.80;99.90
45761;DHT22;31471;51.040;14.414;2022-07-22T00:36:13;16.80;99.90
45761;DHT22;31471;51.040;14.414;2022-07-22T00:38:39;16.80;99.90
45761;DHT22;31471;51.040;14.414;2022-07-22T00:41:04;16.80;99.90
45761;DHT22;31471;51.040;14.414;2022-07-22T00:43:50;16.80;99.90
45761;DHT22;31471;51.040;14.414;2022-07-22T00:46:16;16.70;99.90
45761;DHT22;31471;51.040;14.414;2022-07-22T00:48:42;16.70;99.90
45761;DHT22;31471;51.040;14.414;2022-07-22T00:51:08;16.50;99.90
45761;DHT22;31471;51.040;14.414;2022-07-22T00:53:33;16.50;99.90
45761;DHT22;31471;51.040;14.414;2022-07-22T00:55:59;16.60;99.90
45761;DHT22;31471;51.040;14.414;2022-07-22T00:58:25;16.50;99.90
45761;DHT22;31471;51.040;14.414;2022-07-22T01:00:50;16.40;99.90
45761;DHT22;31471;51.040;14.414;2022-07-22T01:03:16;16.40;99.90
45761;DHT22;31471;51.040;14.414;2022-07-22T01:05:42;16.30;99.90
45761;DHT22;31471;51.040;14.414;2022-07-22T01:08:08;16.30;99.90
45761;DHT22;31471;51.040;14.414;2022-07-22T01:10:33;16.40;99.90
45761;DHT22;31471;51.040;14.414;2022-07-22T01:12:59;16.40;99.90
45761;DHT22;31471;51.040;14.414;2022-07-22T01:15:24;16.40;99.90
45761;DHT22;31471;51.040;14.414;2022-07-22T01:17:50;16.40;99.90
45761;DHT22;31471;51.040;14.414;2022-07-22T01:20:16;16.30;99.90
45761;DHT22;31471;51.040;14.414;2022-07-22T01:22:42;16.20;99.90
45761;DHT22;31471;51.040;14.414;2022-07-22T01:25:10;16.10;99.90
45761;DHT22;31471;51.040;14.414;2022-07-22T01:27:36;16.10;99.90
45761;DHT22;31471;51.040;14.414;2022-07-22T01:30:04;16.20;99.90
45761;DHT22;31471;51.040;14.414;2022-07-22T01:32:30;16.20;99.90
45761;DHT22;31471;51.040;14.414;2022-07-22T01:34:56;16.20;99.90
45761;DHT22;31471;51.040;14.414;2022-07-22T01:37:21;16.20;99.90
45761;DHT22;31471;51.040;14.414;2022-07-22T01:39:48;16.20;99.90
45761;DHT22;31471;51.040;14.414;2022-07-22T01:42:14;16.20;99.90
45761;DHT22;31471;51.040;14.414;2022-07-22T01:44:40;16.20;99.90
45761;DHT22;31471;51.040;14.414;2022-07-22T01:47:08;16.10;99.90
45761;DHT22;31471;51.040;14.414;2022-07-22T01:49:33;16.00;99.90
45761;DHT22;31471;51.040;14.414;2022-07-22T01:52:01;16.10;99.90
45761;DHT22;31471;51.040;14.414;2022-07-22T01:54:26;16.00;99.90
45761;DHT22;31471;51.040;14.414;2022-07-22T01:56:52;16.00;99.90
45761;DHT22;31471;51.040;14.414;2022-07-22T01:59:18;16.00;99.90
45761;DHT22;31471;51.040;14.414;2022-07-22T02:01:45;16.00;99.90
45761;DHT22;31471;51.040;14.414;2022-07-22T02:04:11;16.00;99.90
45761;DHT22;31471;51.040;14.414;2022-07-22T02:06:37;16.00;99.90
45761;DHT22;31471;51.040;14.414;2022-07-22T02:09:02;15.90;99.90
45761;DHT22;31471;51.040;14.414;2022-07-22T02:11:35;15.80;99.90
45761;DHT22;31471;51.040;14.414;2022-07-22T02:14:01;15.80;99.90
45761;DHT22;31471;51.040;14.414;2022-07-22T02:16:28;15.80;99.90
45761;DHT22;31471;51.040;14.414;2022-07-22T02:18:54;15.90;99.90
45761;DHT22;31471;51.040;14.414;2022-07-22T02:21:20;15.90;99.90
45761;DHT22;31471;51.040;14.414;2022-07-22T02:23:46;15.80;99.90
45761;DHT22;31471;51.040;14.414;2022-07-22T02:26:12;15.70;99.90
45761;DHT22;31471;51.040;14.414;2022-07-22T02:28:37;15.80;99.90
45761;DHT22;31471;51.040;14.414;2022-07-22T02:31:03;15.70;99.90
45761;DHT22;31471;51.040;14.414;2022-07-22T02:33:29;15.70;99.90
45761;DHT22;31471;51.040;14.414;2022-07-22T02:35:56;15.60;99.90
45761;DHT22;31471;51.040;14.414;2022-07-22T02:38:22;15.70;99.90
45761;DHT22;31471;51.040;14.414;2022-07-22T02:40:48;15.70;99.90
45761;DHT22;31471;51.040;14.414;2022-07-22T02:43:14;15.50;99.90
45761;DHT22;31471;51.040;14.414;2022-07-22T02:45:39;15.50;99.90
45761;DHT22;31471;51.040;14.414;2022-07-22T02:48:06;15.60;99.90
45761;DHT22;31471;51.040;14.414;2022-07-22T02:50:32;15.60;99.90
45761;DHT22;31471;51.040;14.414;2022-07-22T02:52:59;15.60;99.90
45761;DHT22;31471;51.040;14.414;2022-07-22T02:55:27;15.60;99.90
45761;DHT22;31471;51.040;14.414;2022-07-22T02:57:55;15.60;99.90
45761;DHT22;31471;51.040;14.414;2022-07-22T03:00:20;15.60;99.90
45761;DHT22;31471;51.040;14.414;2022-07-22T03:02:46;15.60;99.90
45761;DHT22;31471;51.040;14.414;2022-07-22T03:05:12;15.50;99.90
45761;DHT22;31471;51.040;14.414;2022-07-22T03:07:45;15.60;99.90
45761;DHT22;31471;51.040;14.414;2022-07-22T03:10:12;15.50;99.90
45761;DHT22;31471;51.040;14.414;2022-07-22T03:12:38;15.50;99.90
45761;DHT22;31471;51.040;14.414;2022-07-22T03:15:05;15.50;99.90
45761;DHT22;31471;51.040;14.414;2022-07-22T03:17:34;15.40;99.90
45761;DHT22;31471;51.040;14.414;2022-07-22T03:20:05;15.20;99.90
45761;DHT22;31471;51.040;14.414;2022-07-22T03:22:31;15.20;99.90
45761;DHT22;31471;51.040;14.414;2022-07-22T03:24:57;15.10;99.90
45761;DHT22;31471;51.040;14.414;2022-07-22T03:27:22;15.10;99.90
45761;DHT22;31471;51.040;14.414;2022-07-22T03:29:48;15.10;99.90
45761;DHT22;31471;51.040;14.414;2022-07-22T03:32:14;15.20;99.90
45761;DHT22;31471;51.040;14.414;2022-07-22T03:34:45;15.20;99.90
45761;DHT22;31471;51.040;14.414;2022-07-22T03:37:11;15.30;99.90
45761;DHT22;31471;51.040;14.414;2022-07-22T03:39:37;15.30;99.90
45761;DHT22;31471;51.040;14.414;2022-07-22T03:42:03;15.30;99.90
45761;DHT22;31471;51.040;14.414;2022-07-22T03:44:32;15.40;99.90
45761;DHT22;31471;51.040;14.414;2022-07-22T03:46:58;15.40;99.90
45761;DHT22;31471;51.040;14.414;2022-07-22T03:49:23;15.40;99.90
45761;DHT22;31471;51.040;14.414;2022-07-22T03:51:49;15.40;99.90
45761;DHT22;31471;51.040;14.414;2022-07-22T03:54:14;15.50;99.90
45761;DHT22;31471;51.040;14.414;2022-07-22T03:56:41;15.40;99.90
45761;DHT22;31471;51.040;14.414;2022-07-22T03:59:07;15.50;99.90
45761;DHT22;31471;51.040;14.414;2022-07-22T04:01:33;15.50;99.90
45761;DHT22;31471;51.040;14.414;2022-07-22T04:03:59;15.50;99.90
45761;DHT22;31471;51.040;14.414;2022-07-22T04:06:28;15.60;99.90
45761;DHT22;31471;51.040;14.414;2022-07-22T04:09:02;15.60;99.90
45761;DHT22;31471;51.040;14.414;2022-07-22T04:11:28;15.70;99.90
45761;DHT22;31471;51.040;14.414;2022-07-22T04:13:54;15.60;99.90
45761;DHT22;31471;51.040;14.414;2022-07-22T04:16:19;15.60;99.90
45761;DHT22;31471;51.040;14.414;2022-07-22T04:18:54;15.60;99.90
45761;DHT22;31471;51.040;14.414;2022-07-22T04:21:35;15.70;99.90
45761;DHT22;31471;51.040;14.414;2022-07-22T04:24:06;15.70;99.90
45761;DHT22;31471;51.040;14.414;2022-07-22T04:26:32;15.80;99.90
45761;DHT22;31471;51.040;14.414;2022-07-22T04:28:58;15.90;99.90
45761;DHT22;31471;51.040;14.414;2022-07-22T04:31:24;16.00;99.90
45761;DHT22;31471;51.040;14.414;2022-07-22T04:33:57;16.00;99.90
45761;DHT22;31471;51.040;14.414;2022-07-22T04:36:22;16.10;99.90
45761;DHT22;31471;51.040;14.414;2022-07-22T04:38:49;16.10;99.90
45761;DHT22;31471;51.040;14.414;2022-07-22T04:41:15;16.10;99.90
45761;DHT22;31471;51.040;14.414;2022-07-22T04:43:41;16.20;99.90
45761;DHT22;31471;51.040;14.414;2022-07-22T04:46:07;16.30;99.90
45761;DHT22;31471;51.040;14.414;2022-07-22T04:48:36;16.30;99.90
45761;DHT22;31471;51.040;14.414;2022-07-22T04:51:02;16.40;99.90
45761;DHT22;31471;51.040;14.414;2022-07-22T04:53:29;16.50;99.90
45761;DHT22;31471;51.040;14.414;2022-07-22T04:55:55;16.50;99.90
45761;DHT22;31471;51.040;14.414;2022-07-22T04:58:20;16.70;99.90
45761;DHT22;31471;51.040;14.414;2022-07-22T05:00:47;16.80;99.90
45761;DHT22;31471;51.040;14.414;2022-07-22T05:03:13;16.80;99.90
45761;DHT22;31471;51.040;14.414;2022-07-22T05:05:40;16.90;99.90
45761;DHT22;31471;51.040;14.414;2022-07-22T05:08:06;16.90;99.90
45761;DHT22;31471;51.040;14.414;2022-07-22T05:10:32;17.10;99.90
45761;DHT22;31471;51.040;14.414;2022-07-22T05:12:59;17.10;99.90
45761;DHT22;31471;51.040;14.414;2022-07-22T05:15:25;17.20;99.90
45761;DHT22;31471;51.040;14.414;2022-07-22T05:17:50;17.30;99.90
45761;DHT22;31471;51.040;14.414;2022-07-22T05:20:21;17.40;99.90
45761;DHT22;31471;51.040;14.414;2022-07-22T05:22:47;17.60;99.90
45761;DHT22;31471;51.040;14.414;2022-07-22T05:25:16;17.70;99.90
45761;DHT22;31471;51.040;14.414;2022-07-22T05:27:50;17.80;99.90
45761;DHT22;31471;51.040;14.414;2022-07-22T05:30:18;17.90;99.90
45761;DHT22;31471;51.040;14.414;2022-07-22T05:32:43;18.00;99.90
45761;DHT22;31471;51.040;14.414;2022-07-22T05:35:11;18.10;99.90
45761;DHT22;31471;51.040;14.414;2022-07-22T05:37:36;18.30;99.90
45761;DHT22;31471;51.040;14.414;2022-07-22T05:40:02;18.30;99.90
45761;DHT22;31471;51.040;14.414;2022-07-22T05:42:28;18.40;99.90
45761;DHT22;31471;51.040;14.414;2022-07-22T05:44:53;18.50;99.90
45761;DHT22;31471;51.040;14.414;2022-07-22T05:47:20;18.60;99.90
45761;DHT22;31471;51.040;14.414;2022-07-22T05:49:45;18.70;99.90
45761;DHT22;31471;51.040;14.414;2022-07-22T05:52:12;18.80;99.90
45761;DHT22;31471;51.040;14.414;2022-07-22T05:54:38;18.90;99.90
45761;DHT22;31471;51.040;14.414;2022-07-22T05:57:05;18.90;99.90
45761;DHT22;31471;51.040;14.414;2022-07-22T05:59:35;19.00;99.90
45761;DHT22;31471;51.040;14.414;2022-07-22T06:02:01;19.00;99.90
45761;DHT22;31471;51.040;14.414;2022-07-22T06:04:43;19.10;99.90
45761;DHT22;31471;51.040;14.414;2022-07-22T06:07:09;19.20;99.90
45761;DHT22;31471;51.040;14.414;2022-07-22T06:09:34;19.30;99.90
45761;DHT22;31471;51.040;14.414;2022-07-22T06:12:00;19.50;99.90
45761;DHT22;31471;51.040;14.414;2022-07-22T06:14:26;19.50;99.90
45761;DHT22;31471;51.040;14.414;2022-07-22T06:16:51;19.50;99.90
45761;DHT22;31471;51.040;14.414;2022-07-22T06:19:17;19.60;99.90
45761;DHT22;31471;51.040;14.414;2022-07-22T06:21:42;19.70;99.90
45761;DHT22;31471;51.040;14.414;2022-07-22T06:24:11;19.80;99.90
45761;DHT22;31471;51.040;14.414;2022-07-22T06:26:37;19.80;99.90
45761;DHT22;31471;51.040;14.414;2022-07-22T06:29:02;20.00;99.90
45761;DHT22;31471;51.040;14.414;2022-07-22T06:31:28;20.00;99.90
45761;DHT22;31471;51.040;14.414;2022-07-22T06:33:53;20.10;99.90
45761;DHT22;31471;51.040;14.414;2022-07-22T06:36:19;20.20;99.90
45761;DHT22;31471;51.040;14.414;2022-07-22T06:38:45;20.20;99.90
45761;DHT22;31471;51.040;14.414;2022-07-22T06:41:20;20.20;99.90
45761;DHT22;31471;51.040;14.414;2022-07-22T06:43:55;20.40;99.90
45761;DHT22;31471;51.040;14.414;2022-07-22T06:46:41;20.40;99.90
45761;DHT22;31471;51.040;14.414;2022-07-22T06:49:06;20.50;99.90
45761;DHT22;31471;51.040;14.414;2022-07-22T06:51:34;20.60;99.90
45761;DHT22;31471;51.040;14.414;2022-07-22T06:54:00;20.80;99.90
45761;DHT22;31471;51.040;14.414;2022-07-22T06:56:26;20.90;99.90
45761;DHT22;31471;51.040;14.414;2022-07-22T06:58:52;20.90;99.90
45761;DHT22;31471;51.040;14.414;2022-07-22T07:01:18;21.00;99.90
45761;DHT22;31471;51.040;14.414;2022-07-22T07:03:49;21.20;99.90
45761;DHT22;31471;51.040;14.414;2022-07-22T07:06:15;21.30;99.90
45761;DHT22;31471;51.040;14.414;2022-07-22T07:08:56;21.30;99.90
45761;DHT22;31471;51.040;14.414;2022-07-22T07:11:24;21.50;99.90
45761;DHT22;31471;51.040;14.414;2022-07-22T07:13:50;21.60;99.90
45761;DHT22;31471;51.040;14.414;2022-07-22T07:16:16;21.70;99.90
45761;DHT22;31471;51.040;14.414;2022-07-22T07:18:41;21.90;99.90
45761;DHT22;31471;51.040;14.414;2022-07-22T07:21:07;22.20;99.90
45761;DHT22;31471;51.040;14.414;2022-07-22T07:23:32;22.40;99.90
45761;DHT22;31471;51.040;14.414;2022-07-22T07:25:58;22.60;99.90
45761;DHT22;31471;51.040;14.414;2022-07-22T07:28:24;22.80;99.90
45761;DHT22;31471;51.040;14.414;2022-07-22T07:30:53;22.90;99.90
45761;DHT22;31471;51.040;14.414;2022-07-22T07:33:20;23.00;99.90
45761;DHT22;31471;51.040;14.414;2022-07-22T07:35:45;23.20;99.90
45761;DHT22;31471;51.040;14.414;2022-07-22T07:38:12;23.30;99.90
45761;DHT22;31471;51.040;14.414;2022-07-22T07:40:40;23.50;99.90
45761;DHT22;31471;51.040;14.414;2022-07-22T07:43:06;23.70;99.90
45761;DHT22;31471;51.040;14.414;2022-07-22T07:45:32;24.00;99.90
45761;DHT22;31471;51.040;14.414;2022-07-22T07:48:00;24.00;99.90
45761;DHT22;31471;51.040;14.414;2022-07-22T07:50:26;24.20;99.90
45761;DHT22;31471;51.040;14.414;2022-07-22T07:52:53;24.50;99.90
45761;DHT22;31471;51.040;14.414;2022-07-22T07:55:22;24.60;99.90
45761;DHT22;31471;51.040;14.414;2022-07-22T07:57:48;24.80;99.90
45761;DHT22;31471;51.040;14.414;2022-07-22T08:00:17;24.70;99.90
45761;DHT22;31471;51.040;14.414;2022-07-22T08:02:46;24.90;99.90
45761;DHT22;31471;51.040;14.414;2022-07-22T08:05:12;25.10;99.90
45761;DHT22;31471;51.040;14.414;2022-07-22T08:07:38;25.20;99.90
45761;DHT22;31471;51.040;14.414;2022-07-22T08:10:05;25.20;99.90
45761;DHT22;31471;51.040;14.414;2022-07-22T08:13:09;25.40;99.90
45761;DHT22;31471;51.040;14.414;2022-07-22T08:15:58;25.50;99.90
45761;DHT22;31471;51.040;14.414;2022-07-22T08:18:25;25.80;99.90
45761;DHT22;31471;51.040;14.414;2022-07-22T08:20:51;26.10;99.90
45761;DHT22;31471;51.040;14.414;2022-07-22T08:23:19;26.20;99.90
45761;DHT22;31471;51.040;14.414;2022-07-22T08:25:46;26.00;99.90
45761;DHT22;31471;51.040;14.414;2022-07-22T08:28:12;26.20;99.90
45761;DHT22;31471;51.040;14.414;2022-07-22T08:30:38;26.50;99.90
45761;DHT22;31471;51.040;14.414;2022-07-22T08:33:05;26.60;99.90
45761;DHT22;31471;51.040;14.414;2022-07-22T08:35:31;26.90;99.90
45761;DHT22;31471;51.040;14.414;2022-07-22T08:37:57;26.70;99.90
45761;DHT22;31471;51.040;14.414;2022-07-22T08:40:24;26.40;99.90
45761;DHT22;31471;51.040;14.414;2022-07-22T08:42:50;26.70;99.90
45761;DHT22;31471;51.040;14.414;2022-07-22T08:45:18;26.50;99.90
45761;DHT22;31471;51.040;14.414;2022-07-22T08:47:46;26.80;99.90
45761;DHT22;31471;51.040;14.414;2022-07-22T08:50:17;27.00;99.90
45761;DHT22;31471;51.040;14.414;2022-07-22T08:52:50;26.90;99.90
45761;DHT22;31471;51.040;14.414;2022-07-22T08:55:18;27.10;99.90
45761;DHT22;31471;51.040;14.414;2022-07-22T08:57:45;27.00;99.90
45761;DHT22;31471;51.040;14.414;2022-07-22T09:00:14;27.50;99.90
45761;DHT22;31471;51.040;14.414;2022-07-22T09:02:41;27.30;99.90
45761;DHT22;31471;51.040;14.414;2022-07-22T09:05:11;27.80;99.90
45761;DHT22;31471;51.040;14.414;2022-07-22T09:07:41;28.30;99.90
45761;DHT22;31471;51.040;14.414;2022-07-22T09:10:16;28.30;99.90
45761;DHT22;31471;51.040;14.414;2022-07-22T09:13:05;28.50;99.90
45761;DHT22;31471;51.040;14.414;2022-07-22T09:16:00;28.40;99.90
45761;DHT22;31471;51.040;14.414;2022-07-22T09:18:49;28.40;99.90
45761;DHT22;31471;51.040;14.414;2022-07-22T09:21:38;28.30;98.80
45761;DHT22;31471;51.040;14.414;2022-07-22T09:24:28;28.30;99.20
45761;DHT22;31471;51.040;14.414;2022-07-22T09:27:01;28.80;97.60
45761;DHT22;31471;51.040;14.414;2022-07-22T09:29:29;28.60;97.00
45761;DHT22;31471;51.040;14.414;2022-07-22T09:32:11;28.60;97.70
45761;DHT22;31471;51.040;14.414;2022-07-22T09:35:01;28.50;97.00
45761;DHT22;31471;51.040;14.414;2022-07-22T09:37:29;28.50;99.30
45761;DHT22;31471;51.040;14.414;2022-07-22T09:40:12;29.00;97.10
45761;DHT22;31471;51.040;14.414;2022-07-22T09:42:46;29.50;95.60
45761;DHT22;31471;51.040;14.414;2022-07-22T09:45:12;29.00;93.80
45761;DHT22;31471;51.040;14.414;2022-07-22T09:47:44;29.20;93.90
45761;DHT22;31471;51.040;14.414;2022-07-22T09:50:31;29.20;94.20
45761;DHT22;31471;51.040;14.414;2022-07-22T09:53:16;29.30;92.20
45761;DHT22;31471;51.040;14.414;2022-07-22T09:55:47;28.80;93.90
45761;DHT22;31471;51.040;14.414;2022-07-22T09:58:13;28.80;95.30
45761;DHT22;31471;51.040;14.414;2022-07-22T10:00:40;29.10;95.60
45761;DHT22;31471;51.040;14.414;2022-07-22T10:03:08;29.70;94.70
45761;DHT22;31471;51.040;14.414;2022-07-22T10:05:40;30.20;92.90
45761;DHT22;31471;51.040;14.414;2022-07-22T10:08:08;30.00;91.20
45761;DHT22;31471;51.040;14.414;2022-07-22T10:10:36;30.00;90.60
45761;DHT22;31471;51.040;14.414;2022-07-22T10:13:03;30.10;91.00
45761;DHT22;31471;51.040;14.414;2022-07-22T10:15:31;30.00;90.70
45761;DHT22;31471;51.040;14.414;2022-07-22T10:18:02;30.00;90.60
45761;DHT22;31471;51.040;14.414;2022-07-22T10:20:30;29.70;91.80
45761;DHT22;31471;51.040;14.414;2022-07-22T10:23:04;29.80;90.80
45761;DHT22;31471;51.040;14.414;2022-07-22T10:25:32;30.00;91.80
45761;DHT22;31471;51.040;14.414;2022-07-22T10:28:24;29.90;90.20
45761;DHT22;31471;51.040;14.414;2022-07-22T10:30:49;30.00;88.10
45761;DHT22;31471;51.040;14.414;2022-07-22T10:33:24;30.50;89.00
45761;DHT22;31471;51.040;14.414;2022-07-22T10:35:57;30.40;89.20
45761;DHT22;31471;51.040;14.414;2022-07-22T10:38:25;30.10;90.10
45761;DHT22;31471;51.040;14.414;2022-07-22T10:40:58;30.50;87.00
45761;DHT22;31471;51.040;14.414;2022-07-22T10:43:29;31.00;84.50
45761;DHT22;31471;51.040;14.414;2022-07-22T10:45:57;31.10;86.20
45761;DHT22;31471;51.040;14.414;2022-07-22T10:51:12;31.40;81.80
45761;DHT22;31471;51.040;14.414;2022-07-22T10:53:55;31.40;80.90
45761;DHT22;31471;51.040;14.414;2022-07-22T10:58:53;31.10;85.20
45761;DHT22;31471;51.040;14.414;2022-07-22T11:01:21;30.70;82.90
45761;DHT22;31471;51.040;14.414;2022-07-22T11:03:48;30.90;82.30
45761;DHT22;31471;51.040;14.414;2022-07-22T11:08:53;30.40;81.40
45761;DHT22;31471;51.040;14.414;2022-07-22T11:14:13;31.10;81.60
45761;DHT22;31471;51.040;14.414;2022-07-22T11:16:39;31.30;80.50
45761;DHT22;31471;51.040;14.414;2022-07-22T11:19:05;31.20;81.70
45761;DHT22;31471;51.040;14.414;2022-07-22T11:21:32;31.10;79.60
45761;DHT22;31471;51.040;14.414;2022-07-22T11:24:00;30.40;81.80
45761;DHT22;31471;51.040;14.414;2022-07-22T11:26:46;30.40;82.80
45761;DHT22;31471;51.040;14.414;2022-07-22T11:29:26;30.10;81.00
45761;DHT22;31471;51.040;14.414;2022-07-22T11:31:54;30.10;81.50
45761;DHT22;31471;51.040;14.414;2022-07-22T11:34:20;30.80;81.30
45761;DHT22;31471;51.040;14.414;2022-07-22T11:36:48;31.00;82.20
45761;DHT22;31471;51.040;14.414;2022-07-22T11:39:18;31.20;81.50
45761;DHT22;31471;51.040;14.414;2022-07-22T11:41:44;31.60;80.00
45761;DHT22;31471;51.040;14.414;2022-07-22T11:44:09;31.50;80.00
45761;DHT22;31471;51.040;14.414;2022-07-22T11:46:40;31.40;76.40
45761;DHT22;31471;51.040;14.414;2022-07-22T11:49:07;30.60;78.80
45761;DHT22;31471;51.040;14.414;2022-07-22T11:51:35;30.50;79.70
45761;DHT22;31471;51.040;14.414;2022-07-22T11:54:01;30.70;78.60
45761;DHT22;31471;51.040;14.414;2022-07-22T11:56:27;30.80;77.20
45761;DHT22;31471;51.040;14.414;2022-07-22T11:58:53;31.50;77.10
45761;DHT22;31471;51.040;14.414;2022-07-22T12:01:22;31.50;76.40
45761;DHT22;31471;51.040;14.414;2022-07-22T12:03:50;31.20;75.00
45761;DHT22;31471;51.040;14.414;2022-07-22T12:06:17;31.60;79.40
45761;DHT22;31471;51.040;14.414;2022-07-22T12:08:49;31.50;75.40
45761;DHT22;31471;51.040;14.414;2022-07-22T12:11:16;31.70;74.20
45761;DHT22;31471;51.040;14.414;2022-07-22T12:13:44;31.80;73.40
45761;DHT22;31471;51.040;14.414;2022-07-22T12:18:43;32.00;76.20
45761;DHT22;31471;51.040;14.414;2022-07-22T12:21:09;32.10;72.60
45761;DHT22;31471;51.040;14.414;2022-07-22T12:23:34;32.50;71.40
45761;DHT22;31471;51.040;14.414;2022-07-22T12:26:01;31.70;72.50
45761;DHT22;31471;51.040;14.414;2022-07-22T12:28:27;32.40;72.40
45761;DHT22;31471;51.040;14.414;2022-07-22T12:30:55;32.50;70.20
45761;DHT22;31471;51.040;14.414;2022-07-22T12:33:21;32.40;71.00
45761;DHT22;31471;51.040;14.414;2022-07-22T12:36:04;32.60;70.90
45761;DHT22;31471;51.040;14.414;2022-07-22T12:38:31;32.40;71.20
45761;DHT22;31471;51.040;14.414;2022-07-22T12:40:57;32.20;70.10
45761;DHT22;31471;51.040;14.414;2022-07-22T12:43:42;32.80;73.20
45761;DHT22;31471;51.040;14.414;2022-07-22T12:46:08;33.30;69.80
45761;DHT22;31471;51.040;14.414;2022-07-22T12:48:33;32.60;68.70
45761;DHT22;31471;51.040;14.414;2022-07-22T12:50:59;32.50;69.20
45761;DHT22;31471;51.040;14.414;2022-07-22T12:53:25;32.40;72.20
45761;DHT22;31471;51.040;14.414;2022-07-22T12:55:56;32.80;70.20
45761;DHT22;31471;51.040;14.414;2022-07-22T12:58:24;33.30;71.90
45761;DHT22;31471;51.040;14.414;2022-07-22T13:00:53;32.70;69.80
45761;DHT22;31471;51.040;14.414;2022-07-22T13:03:20;32.70;69.80
45761;DHT22;31471;51.040;14.414;2022-07-22T13:05:51;32.20;70.20
45761;DHT22;31471;51.040;14.414;2022-07-22T13:08:18;31.90;71.70
45761;DHT22;31471;51.040;14.414;2022-07-22T13:10:44;32.00;69.10
45761;DHT22;31471;51.040;14.414;2022-07-22T13:13:10;32.40;68.70
45761;DHT22;31471;51.040;14.414;2022-07-22T13:15:36;32.40;69.80
45761;DHT22;31471;51.040;14.414;2022-07-22T13:18:01;32.50;68.40
45761;DHT22;31471;51.040;14.414;2022-07-22T13:20:27;32.50;69.40
45761;DHT22;31471;51.040;14.414;2022-07-22T13:22:52;32.00;69.30
45761;DHT22;31471;51.040;14.414;2022-07-22T13:25:18;32.30;69.40
45761;DHT22;31471;51.040;14.414;2022-07-22T13:27:44;32.30;67.60
45761;DHT22;31471;51.040;14.414;2022-07-22T13:30:10;32.50;69.80
45761;DHT22;31471;51.040;14.414;2022-07-22T13:32:36;31.60;69.40
45761;DHT22;31471;51.040;14.414;2022-07-22T13:35:02;31.80;71.70
45761;DHT22;31471;51.040;14.414;2022-07-22T13:37:27;32.10;71.10
45761;DHT22;31471;51.040;14.414;2022-07-22T13:39:53;32.50;69.70
45761;DHT22;31471;51.040;14.414;2022-07-22T13:42:19;32.40;68.40
45761;DHT22;31471;51.040;14.414;2022-07-22T13:44:49;32.00;69.20
45761;DHT22;31471;51.040;14.414;2022-07-22T13:47:16;32.30;69.10
45761;DHT22;31471;51.040;14.414;2022-07-22T13:49:42;32.50;68.30
45761;DHT22;31471;51.040;14.414;2022-07-22T13:52:09;32.80;68.90
45761;DHT22;31471;51.040;14.414;2022-07-22T13:54:35;32.90;66.90
45761;DHT22;31471;51.040;14.414;2022-07-22T13:57:02;33.20;67.90
45761;DHT22;31471;51.040;14.414;2022-07-22T13:59:28;32.90;65.90
45761;DHT22;31471;51.040;14.414;2022-07-22T14:01:56;32.40;67.80
45761;DHT22;31471;51.040;14.414;2022-07-22T14:04:22;32.20;67.10
45761;DHT22;31471;51.040;14.414;2022-07-22T14:06:47;32.50;68.30
45761;DHT22;31471;51.040;14.414;2022-07-22T14:09:13;32.50;69.60
45761;DHT22;31471;51.040;14.414;2022-07-22T14:11:39;32.70;69.20
45761;DHT22;31471;51.040;14.414;2022-07-22T14:14:04;32.80;66.90
45761;DHT22;31471;51.040;14.414;2022-07-22T14:16:32;32.90;67.00
45761;DHT22;31471;51.040;14.414;2022-07-22T14:19:07;32.20;67.10
45761;DHT22;31471;51.040;14.414;2022-07-22T14:21:33;32.40;66.90
45761;DHT22;31471;51.040;14.414;2022-07-22T14:24:00;32.10;66.60
45761;DHT22;31471;51.040;14.414;2022-07-22T14:26:26;32.30;67.80
45761;DHT22;31471;51.040;14.414;2022-07-22T14:28:52;31.90;67.90
45761;DHT22;31471;51.040;14.414;2022-07-22T14:31:17;32.20;67.60
45761;DHT22;31471;51.040;14.414;2022-07-22T14:33:44;32.10;67.80
45761;DHT22;31471;51.040;14.414;2022-07-22T14:36:09;32.20;67.60
45761;DHT22;31471;51.040;14.414;2022-07-22T14:38:35;32.50;68.90
45761;DHT22;31471;51.040;14.414;2022-07-22T14:41:01;32.10;68.00
45761;DHT22;31471;51.040;14.414;2022-07-22T14:43:26;31.90;67.50
45761;DHT22;31471;51.040;14.414;2022-07-22T14:45:52;31.80;68.30
45761;DHT22;31471;51.040;14.414;2022-07-22T14:48:17;31.80;68.60
45761;DHT22;31471;51.040;14.414;2022-07-22T14:50:43;31.50;69.50
45761;DHT22;31471;51.040;14.414;2022-07-22T14:53:09;31.40;68.80
45761;DHT22;31471;51.040;14.414;2022-07-22T14:55:34;31.40;70.00
45761;DHT22;31471;51.040;14.414;2022-07-22T14:58:00;31.40;69.00
45761;DHT22;31471;51.040;14.414;2022-07-22T15:00:25;31.20;68.70
45761;DHT22;31471;51.040;14.414;2022-07-22T15:02:51;31.30;69.20
45761;DHT22;31471;51.040;14.414;2022-07-22T15:05:16;31.20;68.30
45761;DHT22;31471;51.040;14.414;2022-07-22T15:07:42;30.90;68.60
45761;DHT22;31471;51.040;14.414;2022-07-22T15:10:08;31.10;70.50
45761;DHT22;31471;51.040;14.414;2022-07-22T15:12:34;30.80;69.60
45761;DHT22;31471;51.040;14.414;2022-07-22T15:15:00;30.70;69.70
45761;DHT22;31471;51.040;14.414;2022-07-22T15:17:25;30.40;70.40
45761;DHT22;31471;51.040;14.414;2022-07-22T15:19:51;30.30;70.80
45761;DHT22;31471;51.040;14.414;2022-07-22T15:22:16;30.10;70.70
45761;DHT22;31471;51.040;14.414;2022-07-22T15:24:42;30.20;71.40
45761;DHT22;31471;51.040;14.414;2022-07-22T15:27:08;30.10;70.70
45761;DHT22;31471;51.040;14.414;2022-07-22T15:29:33;30.10;70.50
45761;DHT22;31471;51.040;14.414;2022-07-22T15:31:59;30.10;70.70
45761;DHT22;31471;51.040;14.414;2022-07-22T15:34:24;30.00;70.90